Rockford, Washington
Current Conditions -  °F | °C
As of 11:53 PM on Wednesday 26 Nov 2014 (Local Time) from KSFF Reporting Station
Overcast Overcast  
Wind Chill: 39°   Ceiling: 6500
Heat Index: 42°   Visibility: 9mi
Dew Point: 39°   Wind: 5mph
Humidity: 89%   Direction: 30°NNE
Pressure: 29.95"   Gusts: NA
Location:  47.45°N, 117.13°W
Report Text: KSFF 270753Z AUTO 03004KT 9SM BKN065 OVC120 06/04 A2995 RMK AO2 SLP151 T00560039 400670017
Loading
Personal Weather Stations






























Interactive Weather Map New forecast layout! Learn more

10-Day Weather Forecast

Advertisements
Track Severe Weather on mobile